Aigle Des Mers — FO4883 — position and weather

sailwx.info

Track history (hours):
 
Tides and Currents Weather Stations Pressure Air Temp Water Temp Dewpoint Dewpoint Depression Visibility Wind Speed Wind Dir Waves Ship Positions

Aigle Des Mers

Last reported at 2015-Jul-31 07:11 UTC. Time now 2015-Aug-01 03:36 UTC.
Position N 48°06' W 004°19'.

Type: Fishing. MMSI: 227318010.

Date/timePositionNaut miles runAvg speedWind from/ knotsBaromVisibWave heightAir tempDewpointWater temp
2015-Jul-31 07:11N 48°06' W 004°19'0 0.0
2015-Jul-31 06:30N 48°06' W 004°19'0 0.0
2015-Jul-31 05:33N 48°06' W 004°19'0 0.0
2015-Jul-31 04:33N 48°06' W 004°19'0 0.0
2015-Jul-31 03:33N 48°06' W 004°19'0 0.1
2015-Jul-31 02:33N 48°06' W 004°19'7 6.6
2015-Jul-31 01:28N 48°12' W 004°26'4 3.9
2015-Jul-31 00:33N 48°10' W 004°30'9 9.1
2015-Jul-30 23:33N 48°11' W 004°44'8 8.0
2015-Jul-30 22:33N 48°12' W 004°56'0 0.2
2015-Jul-30 21:33N 48°13' W 004°56'4 4.0
2015-Jul-30 20:33N 48°16' W 004°52'4 4.1
2015-Jul-30 19:33N 48°15' W 004°46'9 9.0
2015-Jul-30 18:33N 48°10' W 004°35'10 9.5
2015-Jul-30 17:33N 48°07' W 004°21'2 0.1
2015-Jul-30 02:33N 48°06' W 004°19'3 2.8
2015-Jul-30 01:34N 48°09' W 004°20'4 3.6
2015-Jul-30 00:33N 48°09' W 004°26'1 0.7
2015-Jul-29 23:33N 48°09' W 004°25'7 6.6
2015-Jul-29 22:34N 48°09' W 004°35'8 7.6
2015-Jul-29 21:34N 48°13' W 004°45'3 3.2
2015-Jul-29 20:34N 48°14' W 004°49'1 1.5
2015-Jul-29 19:34N 48°13' W 004°47'8 8.2
2015-Jul-29 18:33N 48°10' W 004°36'9 8.6
2015-Jul-29 17:33N 48°07' W 004°24'3 0.2
2015-Jul-29 03:24N 48°06' W 004°19'0 0.1
2015-Jul-29 02:33N 48°06' W 004°20'3 2.9
2015-Jul-29 01:33N 48°08' W 004°22'3 2.9
2015-Jul-29 00:33N 48°11' W 004°25'1 1.3
2015-Jul-28 23:34N 48°12' W 004°26'1 1.0
2015-Jul-28 22:33N 48°13' W 004°25'3 3.3
2015-Jul-28 21:33N 48°11' W 004°21'7 7.0
2015-Jul-28 20:33N 48°06' W 004°29'5 5.4
2015-Jul-28 19:33N 48°08' W 004°22'3 0.1
2015-Jul-26 19:33N 48°06' W 004°19'  
2015-Jul-24 02:25N 48°06' W 004°19'0 0.1
2015-Jul-24 01:33N 48°06' W 004°20'2 2.3
2015-Jul-24 00:33N 48°08' W 004°21'3 2.5
2015-Jul-23 23:34N 48°09' W 004°25'9 8.5
2015-Jul-23 22:33N 48°10' W 004°37'9 8.8
2015-Jul-23 21:33N 48°14' W 004°49'2 1.7
2015-Jul-23 20:34N 48°15' W 004°51'8 7.9
2015-Jul-23 19:33N 48°08' W 004°47'19 9.1
2015-Jul-23 17:28N 47°52' W 004°30'5 0.4
2015-Jul-23 03:33N 47°50' W 004°23'1 1.1
2015-Jul-23 02:33N 47°49' W 004°25'7 3.4
2015-Jul-23 00:33N 47°56' W 004°27'5 1.6
2015-Jul-22 21:33N 47°51' W 004°25'0 0.3
2015-Jul-22 20:33N 47°51' W 004°26'3 0.1
2015-Jul-22 01:33N 47°49' W 004°23'0 0.1
2015-Jul-21 23:33N 47°49' W 004°23'2 2.3
2015-Jul-21 22:33N 47°51' W 004°25'0 0.1
2015-Jul-21 21:33N 47°51' W 004°25'3 2.6
2015-Jul-21 20:33N 47°48' W 004°25'  
Track history (hours):
 
Tides and Currents Weather Stations Pressure Air Temp Water Temp Dewpoint Dewpoint Depression Visibility Wind Speed Wind Dir Waves Ship Positions

Aigle Des Mers

Last reported at 2015-Jul-31 07:11 UTC. Time now 2015-Aug-01 03:36 UTC.
Position N 48°06' W 004°19'.

Type: Fishing. MMSI: 227318010.

Date/timePositionNaut miles runAvg speedWind from/ knotsBaromVisibWave heightAir tempDewpointWater temp
2015-Jul-31 07:11N 48°06' W 004°19'0 0.0
2015-Jul-31 06:30N 48°06' W 004°19'0 0.0
2015-Jul-31 05:33N 48°06' W 004°19'0 0.0
2015-Jul-31 04:33N 48°06' W 004°19'0 0.0
2015-Jul-31 03:33N 48°06' W 004°19'0 0.1
2015-Jul-31 02:33N 48°06' W 004°19'7 6.6
2015-Jul-31 01:28N 48°12' W 004°26'4 3.9
2015-Jul-31 00:33N 48°10' W 004°30'9 9.1
2015-Jul-30 23:33N 48°11' W 004°44'8 8.0
2015-Jul-30 22:33N 48°12' W 004°56'0 0.2
2015-Jul-30 21:33N 48°13' W 004°56'4 4.0
2015-Jul-30 20:33N 48°16' W 004°52'4 4.1
2015-Jul-30 19:33N 48°15' W 004°46'9 9.0
2015-Jul-30 18:33N 48°10' W 004°35'10 9.5
2015-Jul-30 17:33N 48°07' W 004°21'2 0.1
2015-Jul-30 02:33N 48°06' W 004°19'3 2.8
2015-Jul-30 01:34N 48°09' W 004°20'4 3.6
2015-Jul-30 00:33N 48°09' W 004°26'1 0.7
2015-Jul-29 23:33N 48°09' W 004°25'7 6.6
2015-Jul-29 22:34N 48°09' W 004°35'8 7.6
2015-Jul-29 21:34N 48°13' W 004°45'3 3.2
2015-Jul-29 20:34N 48°14' W 004°49'1 1.5
2015-Jul-29 19:34N 48°13' W 004°47'8 8.2
2015-Jul-29 18:33N 48°10' W 004°36'9 8.6
2015-Jul-29 17:33N 48°07' W 004°24'3 0.2
2015-Jul-29 03:24N 48°06' W 004°19'0 0.1
2015-Jul-29 02:33N 48°06' W 004°20'3 2.9
2015-Jul-29 01:33N 48°08' W 004°22'3 2.9
2015-Jul-29 00:33N 48°11' W 004°25'1 1.3
2015-Jul-28 23:34N 48°12' W 004°26'1 1.0
2015-Jul-28 22:33N 48°13' W 004°25'3 3.3
2015-Jul-28 21:33N 48°11' W 004°21'7 7.0
2015-Jul-28 20:33N 48°06' W 004°29'5 5.4
2015-Jul-28 19:33N 48°08' W 004°22'3 0.1
2015-Jul-26 19:33N 48°06' W 004°19'  
2015-Jul-24 02:25N 48°06' W 004°19'0 0.1
2015-Jul-24 01:33N 48°06' W 004°20'2 2.3
2015-Jul-24 00:33N 48°08' W 004°21'3 2.5
2015-Jul-23 23:34N 48°09' W 004°25'9 8.5
2015-Jul-23 22:33N 48°10' W 004°37'9 8.8
2015-Jul-23 21:33N 48°14' W 004°49'2 1.7
2015-Jul-23 20:34N 48°15' W 004°51'8 7.9
2015-Jul-23 19:33N 48°08' W 004°47'19 9.1
2015-Jul-23 17:28N 47°52' W 004°30'5 0.4
2015-Jul-23 03:33N 47°50' W 004°23'1 1.1
2015-Jul-23 02:33N 47°49' W 004°25'7 3.4
2015-Jul-23 00:33N 47°56' W 004°27'5 1.6
2015-Jul-22 21:33N 47°51' W 004°25'0 0.3
2015-Jul-22 20:33N 47°51' W 004°26'3 0.1
2015-Jul-22 01:33N 47°49' W 004°23'0 0.1
2015-Jul-21 23:33N 47°49' W 004°23'2 2.3
2015-Jul-21 22:33N 47°51' W 004°25'0 0.1
2015-Jul-21 21:33N 47°51' W 004°25'3 2.6
2015-Jul-21 20:33N 47°48' W 004°25'  

Dump ship's entire track history